sensor_id;sensor_type;location;lat;lon;timestamp;temperature;humidity
8778;DHT22;4425;50.872;4.712;2024-03-08T00:00:18;5.50;99.90
8778;DHT22;4425;50.872;4.712;2024-03-08T00:02:47;5.40;99.90
8778;DHT22;4425;50.872;4.712;2024-03-08T00:05:16;5.40;99.90
8778;DHT22;4425;50.872;4.712;2024-03-08T00:07:51;5.40;99.90
8778;DHT22;4425;50.872;4.712;2024-03-08T00:10:33;5.40;99.90
8778;DHT22;4425;50.872;4.712;2024-03-08T00:13:00;5.30;99.90
8778;DHT22;4425;50.872;4.712;2024-03-08T00:15:29;5.30;99.90
8778;DHT22;4425;50.872;4.712;2024-03-08T00:17:59;5.30;99.90
8778;DHT22;4425;50.872;4.712;2024-03-08T00:20:32;5.30;99.90
8778;DHT22;4425;50.872;4.712;2024-03-08T00:22:59;5.40;99.90
8778;DHT22;4425;50.872;4.712;2024-03-08T00:25:27;5.30;99.90
8778;DHT22;4425;50.872;4.712;2024-03-08T00:27:55;5.40;99.90
8778;DHT22;4425;50.872;4.712;2024-03-08T00:30:22;5.40;99.90
8778;DHT22;4425;50.872;4.712;2024-03-08T00:32:51;5.40;99.90
8778;DHT22;4425;50.872;4.712;2024-03-08T00:35:19;5.30;99.90
8778;DHT22;4425;50.872;4.712;2024-03-08T00:37:46;5.40;99.90
8778;DHT22;4425;50.872;4.712;2024-03-08T00:40:13;5.30;99.90
8778;DHT22;4425;50.872;4.712;2024-03-08T00:42:40;5.30;99.90
8778;DHT22;4425;50.872;4.712;2024-03-08T00:45:09;5.40;99.90
8778;DHT22;4425;50.872;4.712;2024-03-08T00:47:37;5.30;99.90
8778;DHT22;4425;50.872;4.712;2024-03-08T00:50:10;5.30;99.90
8778;DHT22;4425;50.872;4.712;2024-03-08T00:52:38;5.40;99.90
8778;DHT22;4425;50.872;4.712;2024-03-08T00:55:06;5.30;99.90
8778;DHT22;4425;50.872;4.712;2024-03-08T00:57:33;5.30;99.90
8778;DHT22;4425;50.872;4.712;2024-03-08T01:00:03;5.30;99.90
8778;DHT22;4425;50.872;4.712;2024-03-08T01:02:31;5.20;99.90
8778;DHT22;4425;50.872;4.712;2024-03-08T01:04:59;5.20;99.90
8778;DHT22;4425;50.872;4.712;2024-03-08T01:07:29;5.20;99.90
8778;DHT22;4425;50.872;4.712;2024-03-08T01:09:59;5.10;99.90
8778;DHT22;4425;50.872;4.712;2024-03-08T01:12:26;5.10;99.90
8778;DHT22;4425;50.872;4.712;2024-03-08T01:14:53;5.10;99.90
8778;DHT22;4425;50.872;4.712;2024-03-08T01:17:21;5.10;99.90
8778;DHT22;4425;50.872;4.712;2024-03-08T01:19:47;5.00;99.90
8778;DHT22;4425;50.872;4.712;2024-03-08T01:22:14;5.00;99.90
8778;DHT22;4425;50.872;4.712;2024-03-08T01:24:41;5.00;99.90
8778;DHT22;4425;50.872;4.712;2024-03-08T01:27:10;5.00;99.90
8778;DHT22;4425;50.872;4.712;2024-03-08T01:29:38;5.00;99.90
8778;DHT22;4425;50.872;4.712;2024-03-08T01:32:05;5.00;99.90
8778;DHT22;4425;50.872;4.712;2024-03-08T01:34:35;4.90;99.90
8778;DHT22;4425;50.872;4.712;2024-03-08T01:37:02;5.00;99.90
8778;DHT22;4425;50.872;4.712;2024-03-08T01:39:52;4.90;99.90
8778;DHT22;4425;50.872;4.712;2024-03-08T01:42:21;4.90;99.90
8778;DHT22;4425;50.872;4.712;2024-03-08T01:44:48;4.90;99.90
8778;DHT22;4425;50.872;4.712;2024-03-08T01:47:16;4.80;99.90
8778;DHT22;4425;50.872;4.712;2024-03-08T01:49:45;4.80;99.90
8778;DHT22;4425;50.872;4.712;2024-03-08T01:52:18;4.80;99.90
8778;DHT22;4425;50.872;4.712;2024-03-08T01:54:51;4.70;99.90
8778;DHT22;4425;50.872;4.712;2024-03-08T01:57:21;4.70;99.90
8778;DHT22;4425;50.872;4.712;2024-03-08T01:59:48;4.70;99.90
8778;DHT22;4425;50.872;4.712;2024-03-08T02:02:18;4.70;99.90
8778;DHT22;4425;50.872;4.712;2024-03-08T02:04:47;4.70;99.90
8778;DHT22;4425;50.872;4.712;2024-03-08T02:07:16;4.70;99.90
8778;DHT22;4425;50.872;4.712;2024-03-08T02:09:49;4.80;99.90
8778;DHT22;4425;50.872;4.712;2024-03-08T02:12:24;4.70;99.90
8778;DHT22;4425;50.872;4.712;2024-03-08T02:14:56;4.70;99.90
8778;DHT22;4425;50.872;4.712;2024-03-08T02:17:24;4.70;99.90
8778;DHT22;4425;50.872;4.712;2024-03-08T02:19:52;4.70;99.90
8778;DHT22;4425;50.872;4.712;2024-03-08T02:22:26;4.70;99.90
8778;DHT22;4425;50.872;4.712;2024-03-08T02:24:54;4.70;99.90
8778;DHT22;4425;50.872;4.712;2024-03-08T02:27:27;4.60;99.90
8778;DHT22;4425;50.872;4.712;2024-03-08T02:29:56;4.60;99.90
8778;DHT22;4425;50.872;4.712;2024-03-08T02:32:37;4.50;99.90
8778;DHT22;4425;50.872;4.712;2024-03-08T02:35:05;4.50;99.90
8778;DHT22;4425;50.872;4.712;2024-03-08T02:37:37;4.50;99.90
8778;DHT22;4425;50.872;4.712;2024-03-08T02:40:05;4.50;99.90
8778;DHT22;4425;50.872;4.712;2024-03-08T02:42:33;4.50;99.90
8778;DHT22;4425;50.872;4.712;2024-03-08T02:45:00;4.50;99.90
8778;DHT22;4425;50.872;4.712;2024-03-08T02:47:28;4.40;99.90
8778;DHT22;4425;50.872;4.712;2024-03-08T02:49:57;4.40;99.90
8778;DHT22;4425;50.872;4.712;2024-03-08T02:52:25;4.40;99.90
8778;DHT22;4425;50.872;4.712;2024-03-08T02:54:54;4.40;99.90
8778;DHT22;4425;50.872;4.712;2024-03-08T02:57:24;4.40;99.90
8778;DHT22;4425;50.872;4.712;2024-03-08T02:59:51;4.30;99.90
8778;DHT22;4425;50.872;4.712;2024-03-08T03:02:18;4.30;99.90
8778;DHT22;4425;50.872;4.712;2024-03-08T03:04:45;4.30;99.90
8778;DHT22;4425;50.872;4.712;2024-03-08T03:07:12;4.40;99.90
8778;DHT22;4425;50.872;4.712;2024-03-08T03:09:39;4.30;99.90
8778;DHT22;4425;50.872;4.712;2024-03-08T03:12:08;4.30;99.90
8778;DHT22;4425;50.872;4.712;2024-03-08T03:14:35;4.30;99.90
8778;DHT22;4425;50.872;4.712;2024-03-08T03:17:06;4.20;99.90
8778;DHT22;4425;50.872;4.712;2024-03-08T03:19:34;4.20;99.90
8778;DHT22;4425;50.872;4.712;2024-03-08T03:22:02;4.20;99.90
8778;DHT22;4425;50.872;4.712;2024-03-08T03:24:32;4.10;99.90
8778;DHT22;4425;50.872;4.712;2024-03-08T03:27:00;4.10;99.90
8778;DHT22;4425;50.872;4.712;2024-03-08T03:29:28;4.10;99.90
8778;DHT22;4425;50.872;4.712;2024-03-08T03:31:56;4.10;99.90
8778;DHT22;4425;50.872;4.712;2024-03-08T03:34:23;4.10;99.90
8778;DHT22;4425;50.872;4.712;2024-03-08T03:36:52;4.20;99.90
8778;DHT22;4425;50.872;4.712;2024-03-08T03:39:23;4.10;99.90
8778;DHT22;4425;50.872;4.712;2024-03-08T03:41:51;4.10;99.90
8778;DHT22;4425;50.872;4.712;2024-03-08T03:44:23;4.10;99.90
8778;DHT22;4425;50.872;4.712;2024-03-08T03:46:59;4.10;99.90
8778;DHT22;4425;50.872;4.712;2024-03-08T03:49:26;4.00;99.90
8778;DHT22;4425;50.872;4.712;2024-03-08T03:51:54;4.00;99.90
8778;DHT22;4425;50.872;4.712;2024-03-08T03:54:25;4.00;99.90
8778;DHT22;4425;50.872;4.712;2024-03-08T03:56:52;3.90;99.90
8778;DHT22;4425;50.872;4.712;2024-03-08T03:59:19;4.00;99.90
8778;DHT22;4425;50.872;4.712;2024-03-08T04:01:46;3.90;99.90
8778;DHT22;4425;50.872;4.712;2024-03-08T04:04:18;3.90;99.90
8778;DHT22;4425;50.872;4.712;2024-03-08T04:06:53;3.90;99.90
8778;DHT22;4425;50.872;4.712;2024-03-08T04:09:20;3.90;99.90
8778;DHT22;4425;50.872;4.712;2024-03-08T04:11:49;3.90;99.90
8778;DHT22;4425;50.872;4.712;2024-03-08T04:14:18;3.90;99.90
8778;DHT22;4425;50.872;4.712;2024-03-08T04:16:45;3.90;99.90
8778;DHT22;4425;50.872;4.712;2024-03-08T04:19:16;3.90;99.90
8778;DHT22;4425;50.872;4.712;2024-03-08T04:21:58;3.80;99.90
8778;DHT22;4425;50.872;4.712;2024-03-08T04:24:26;3.90;99.90
8778;DHT22;4425;50.872;4.712;2024-03-08T04:26:54;3.80;99.90
8778;DHT22;4425;50.872;4.712;2024-03-08T04:29:21;3.80;99.90
8778;DHT22;4425;50.872;4.712;2024-03-08T04:31:48;3.80;99.90
8778;DHT22;4425;50.872;4.712;2024-03-08T04:34:21;3.80;99.90
8778;DHT22;4425;50.872;4.712;2024-03-08T04:36:50;3.80;99.90
8778;DHT22;4425;50.872;4.712;2024-03-08T04:39:26;3.70;99.90
8778;DHT22;4425;50.872;4.712;2024-03-08T04:41:55;3.70;99.90
8778;DHT22;4425;50.872;4.712;2024-03-08T04:44:24;3.70;99.90
8778;DHT22;4425;50.872;4.712;2024-03-08T04:46:53;3.70;99.90
8778;DHT22;4425;50.872;4.712;2024-03-08T04:49:21;3.70;99.90
8778;DHT22;4425;50.872;4.712;2024-03-08T04:51:49;3.70;99.90
8778;DHT22;4425;50.872;4.712;2024-03-08T04:54:17;3.70;99.90
8778;DHT22;4425;50.872;4.712;2024-03-08T04:56:47;3.60;99.90
8778;DHT22;4425;50.872;4.712;2024-03-08T04:59:23;3.60;99.90
8778;DHT22;4425;50.872;4.712;2024-03-08T05:01:51;3.60;99.90
8778;DHT22;4425;50.872;4.712;2024-03-08T05:04:32;3.60;99.90
8778;DHT22;4425;50.872;4.712;2024-03-08T05:06:59;3.60;99.90
8778;DHT22;4425;50.872;4.712;2024-03-08T05:09:30;3.60;99.90
8778;DHT22;4425;50.872;4.712;2024-03-08T05:11:58;3.60;99.90
8778;DHT22;4425;50.872;4.712;2024-03-08T05:14:27;3.60;99.90
8778;DHT22;4425;50.872;4.712;2024-03-08T05:17:02;3.60;99.90
8778;DHT22;4425;50.872;4.712;2024-03-08T05:19:36;3.50;99.90
8778;DHT22;4425;50.872;4.712;2024-03-08T05:22:05;3.50;99.90
8778;DHT22;4425;50.872;4.712;2024-03-08T05:24:41;3.50;99.90
8778;DHT22;4425;50.872;4.712;2024-03-08T05:27:08;3.60;99.90
8778;DHT22;4425;50.872;4.712;2024-03-08T05:29:35;3.60;99.90
8778;DHT22;4425;50.872;4.712;2024-03-08T05:32:02;3.60;99.90
8778;DHT22;4425;50.872;4.712;2024-03-08T05:34:30;3.50;99.90
8778;DHT22;4425;50.872;4.712;2024-03-08T05:37:01;3.50;99.90
8778;DHT22;4425;50.872;4.712;2024-03-08T05:39:32;3.40;99.90
8778;DHT22;4425;50.872;4.712;2024-03-08T05:42:00;3.50;99.90
8778;DHT22;4425;50.872;4.712;2024-03-08T05:44:27;3.40;99.90
8778;DHT22;4425;50.872;4.712;2024-03-08T05:46:56;3.50;99.90
8778;DHT22;4425;50.872;4.712;2024-03-08T05:49:25;3.40;99.90
8778;DHT22;4425;50.872;4.712;2024-03-08T05:51:52;3.40;99.90
8778;DHT22;4425;50.872;4.712;2024-03-08T05:54:22;3.40;99.90
8778;DHT22;4425;50.872;4.712;2024-03-08T05:56:50;3.40;99.90
8778;DHT22;4425;50.872;4.712;2024-03-08T05:59:18;3.30;99.90
8778;DHT22;4425;50.872;4.712;2024-03-08T06:01:45;3.30;99.90
8778;DHT22;4425;50.872;4.712;2024-03-08T06:04:12;3.30;99.90
8778;DHT22;4425;50.872;4.712;2024-03-08T06:06:40;3.20;99.90
8778;DHT22;4425;50.872;4.712;2024-03-08T06:09:07;3.30;99.90
8778;DHT22;4425;50.872;4.712;2024-03-08T06:11:38;3.30;99.90
8778;DHT22;4425;50.872;4.712;2024-03-08T06:14:06;3.30;99.90
8778;DHT22;4425;50.872;4.712;2024-03-08T06:16:35;3.30;99.90
8778;DHT22;4425;50.872;4.712;2024-03-08T06:19:01;3.30;99.90
8778;DHT22;4425;50.872;4.712;2024-03-08T06:21:29;3.30;99.90
8778;DHT22;4425;50.872;4.712;2024-03-08T06:23:56;3.30;99.90
8778;DHT22;4425;50.872;4.712;2024-03-08T06:26:24;3.30;99.90
8778;DHT22;4425;50.872;4.712;2024-03-08T06:28:55;3.30;99.90
8778;DHT22;4425;50.872;4.712;2024-03-08T06:31:22;3.40;99.90
8778;DHT22;4425;50.872;4.712;2024-03-08T06:33:49;3.30;99.90
8778;DHT22;4425;50.872;4.712;2024-03-08T06:36:20;3.40;99.90
8778;DHT22;4425;50.872;4.712;2024-03-08T06:38:47;3.30;99.90
8778;DHT22;4425;50.872;4.712;2024-03-08T06:41:13;3.40;99.90
8778;DHT22;4425;50.872;4.712;2024-03-08T06:43:44;3.40;99.90
8778;DHT22;4425;50.872;4.712;2024-03-08T06:46:19;3.50;99.90
8778;DHT22;4425;50.872;4.712;2024-03-08T06:48:47;3.50;99.90
8778;DHT22;4425;50.872;4.712;2024-03-08T06:51:14;3.50;99.90
8778;DHT22;4425;50.872;4.712;2024-03-08T06:53:43;3.50;99.90
8778;DHT22;4425;50.872;4.712;2024-03-08T06:56:10;3.50;99.90
8778;DHT22;4425;50.872;4.712;2024-03-08T06:58:42;3.60;99.90
8778;DHT22;4425;50.872;4.712;2024-03-08T07:01:15;3.60;99.90
8778;DHT22;4425;50.872;4.712;2024-03-08T07:03:49;3.60;99.90
8778;DHT22;4425;50.872;4.712;2024-03-08T07:06:28;3.70;99.90
8778;DHT22;4425;50.872;4.712;2024-03-08T07:08:55;3.70;99.90
8778;DHT22;4425;50.872;4.712;2024-03-08T07:11:24;3.80;99.90
8778;DHT22;4425;50.872;4.712;2024-03-08T07:13:51;3.90;99.90
8778;DHT22;4425;50.872;4.712;2024-03-08T07:16:21;3.90;99.90
8778;DHT22;4425;50.872;4.712;2024-03-08T07:18:48;4.00;99.90
8778;DHT22;4425;50.872;4.712;2024-03-08T07:21:18;4.00;99.90
8778;DHT22;4425;50.872;4.712;2024-03-08T07:23:45;4.00;99.90
8778;DHT22;4425;50.872;4.712;2024-03-08T07:26:20;4.10;99.90
8778;DHT22;4425;50.872;4.712;2024-03-08T07:28:47;4.20;99.90
8778;DHT22;4425;50.872;4.712;2024-03-08T07:31:14;4.20;99.90
8778;DHT22;4425;50.872;4.712;2024-03-08T07:33:53;4.30;99.90
8778;DHT22;4425;50.872;4.712;2024-03-08T07:36:21;4.30;99.90
8778;DHT22;4425;50.872;4.712;2024-03-08T07:38:48;4.70;99.90
8778;DHT22;4425;50.872;4.712;2024-03-08T07:41:15;5.80;99.90
8778;DHT22;4425;50.872;4.712;2024-03-08T07:43:43;7.00;99.90
8778;DHT22;4425;50.872;4.712;2024-03-08T07:46:10;8.10;99.90
8778;DHT22;4425;50.872;4.712;2024-03-08T07:48:38;8.70;99.90
8778;DHT22;4425;50.872;4.712;2024-03-08T07:51:07;8.80;99.90
8778;DHT22;4425;50.872;4.712;2024-03-08T07:53:35;9.20;99.90
8778;DHT22;4425;50.872;4.712;2024-03-08T07:56:02;9.50;99.90
8778;DHT22;4425;50.872;4.712;2024-03-08T07:58:30;9.70;99.90
8778;DHT22;4425;50.872;4.712;2024-03-08T08:00:57;10.40;99.90
8778;DHT22;4425;50.872;4.712;2024-03-08T08:03:25;10.70;99.90
8778;DHT22;4425;50.872;4.712;2024-03-08T08:05:52;10.90;99.90
8778;DHT22;4425;50.872;4.712;2024-03-08T08:08:21;11.50;99.90
8778;DHT22;4425;50.872;4.712;2024-03-08T08:10:48;11.20;99.90
8778;DHT22;4425;50.872;4.712;2024-03-08T08:13:15;10.90;99.90
8778;DHT22;4425;50.872;4.712;2024-03-08T08:15:43;11.60;99.90
8778;DHT22;4425;50.872;4.712;2024-03-08T08:18:11;11.00;99.90
8778;DHT22;4425;50.872;4.712;2024-03-08T08:20:39;11.60;99.90
8778;DHT22;4425;50.872;4.712;2024-03-08T08:23:06;11.80;99.90
8778;DHT22;4425;50.872;4.712;2024-03-08T08:25:35;10.90;99.90
8778;DHT22;4425;50.872;4.712;2024-03-08T08:28:04;10.90;99.90
8778;DHT22;4425;50.872;4.712;2024-03-08T08:30:31;12.00;99.90
8778;DHT22;4425;50.872;4.712;2024-03-08T08:32:59;11.80;99.90
8778;DHT22;4425;50.872;4.712;2024-03-08T08:35:27;11.50;99.90
8778;DHT22;4425;50.872;4.712;2024-03-08T08:37:55;10.30;99.90
8778;DHT22;4425;50.872;4.712;2024-03-08T08:40:24;9.90;99.90
8778;DHT22;4425;50.872;4.712;2024-03-08T08:42:53;9.40;99.90
8778;DHT22;4425;50.872;4.712;2024-03-08T08:45:23;8.80;99.90
8778;DHT22;4425;50.872;4.712;2024-03-08T08:47:50;8.20;99.90
8778;DHT22;4425;50.872;4.712;2024-03-08T08:50:17;7.80;99.90
8778;DHT22;4425;50.872;4.712;2024-03-08T08:52:48;7.60;99.90
8778;DHT22;4425;50.872;4.712;2024-03-08T08:55:16;7.30;99.90
8778;DHT22;4425;50.872;4.712;2024-03-08T08:57:46;7.20;99.90
8778;DHT22;4425;50.872;4.712;2024-03-08T09:00:16;7.20;99.90
8778;DHT22;4425;50.872;4.712;2024-03-08T09:02:44;7.30;99.90
8778;DHT22;4425;50.872;4.712;2024-03-08T09:05:12;7.20;99.90
8778;DHT22;4425;50.872;4.712;2024-03-08T09:07:42;7.30;99.90
8778;DHT22;4425;50.872;4.712;2024-03-08T09:10:10;7.30;99.90
8778;DHT22;4425;50.872;4.712;2024-03-08T09:12:38;7.30;99.90
8778;DHT22;4425;50.872;4.712;2024-03-08T09:15:06;7.40;99.90
8778;DHT22;4425;50.872;4.712;2024-03-08T09:17:36;7.30;99.90
8778;DHT22;4425;50.872;4.712;2024-03-08T09:20:06;7.40;99.90
8778;DHT22;4425;50.872;4.712;2024-03-08T09:22:34;7.40;99.90
8778;DHT22;4425;50.872;4.712;2024-03-08T09:25:01;7.50;99.90
8778;DHT22;4425;50.872;4.712;2024-03-08T09:27:30;7.60;99.90
8778;DHT22;4425;50.872;4.712;2024-03-08T09:29:58;7.70;99.90
8778;DHT22;4425;50.872;4.712;2024-03-08T09:32:25;7.80;99.90
8778;DHT22;4425;50.872;4.712;2024-03-08T09:34:55;7.90;99.90
8778;DHT22;4425;50.872;4.712;2024-03-08T09:37:22;8.00;99.90
8778;DHT22;4425;50.872;4.712;2024-03-08T09:39:49;8.00;99.90
8778;DHT22;4425;50.872;4.712;2024-03-08T09:42:17;7.90;99.90
8778;DHT22;4425;50.872;4.712;2024-03-08T09:44:45;8.10;99.90
8778;DHT22;4425;50.872;4.712;2024-03-08T09:47:14;8.10;99.90
8778;DHT22;4425;50.872;4.712;2024-03-08T09:49:42;8.20;99.90
8778;DHT22;4425;50.872;4.712;2024-03-08T09:52:10;8.10;99.90
8778;DHT22;4425;50.872;4.712;2024-03-08T09:54:38;8.20;99.90
8778;DHT22;4425;50.872;4.712;2024-03-08T09:57:06;8.20;99.90
8778;DHT22;4425;50.872;4.712;2024-03-08T09:59:35;8.20;99.90
8778;DHT22;4425;50.872;4.712;2024-03-08T10:02:15;8.30;99.90
8778;DHT22;4425;50.872;4.712;2024-03-08T10:04:42;8.30;99.90
8778;DHT22;4425;50.872;4.712;2024-03-08T10:07:13;8.40;99.90
8778;DHT22;4425;50.872;4.712;2024-03-08T10:09:41;8.40;99.90
8778;DHT22;4425;50.872;4.712;2024-03-08T10:12:13;8.50;99.90
8778;DHT22;4425;50.872;4.712;2024-03-08T10:14:41;8.50;99.90
8778;DHT22;4425;50.872;4.712;2024-03-08T10:17:08;8.50;99.90
8778;DHT22;4425;50.872;4.712;2024-03-08T10:19:36;8.40;99.90
8778;DHT22;4425;50.872;4.712;2024-03-08T10:22:04;8.40;99.90
8778;DHT22;4425;50.872;4.712;2024-03-08T10:24:33;8.50;99.90
8778;DHT22;4425;50.872;4.712;2024-03-08T10:27:01;8.60;99.90
8778;DHT22;4425;50.872;4.712;2024-03-08T10:29:31;8.60;99.90
8778;DHT22;4425;50.872;4.712;2024-03-08T10:31:58;8.60;99.90
8778;DHT22;4425;50.872;4.712;2024-03-08T10:34:26;8.70;99.90
8778;DHT22;4425;50.872;4.712;2024-03-08T10:37:00;8.80;99.90
8778;DHT22;4425;50.872;4.712;2024-03-08T10:39:37;8.90;99.90
8778;DHT22;4425;50.872;4.712;2024-03-08T10:42:05;9.00;99.90
8778;DHT22;4425;50.872;4.712;2024-03-08T10:44:43;9.00;99.90
8778;DHT22;4425;50.872;4.712;2024-03-08T10:47:18;9.10;99.90
8778;DHT22;4425;50.872;4.712;2024-03-08T10:49:54;9.10;99.90
8778;DHT22;4425;50.872;4.712;2024-03-08T10:52:22;9.30;99.90
8778;DHT22;4425;50.872;4.712;2024-03-08T10:54:52;9.40;99.90
8778;DHT22;4425;50.872;4.712;2024-03-08T10:57:22;9.40;99.90
8778;DHT22;4425;50.872;4.712;2024-03-08T10:59:51;9.40;99.90
8778;DHT22;4425;50.872;4.712;2024-03-08T11:02:19;9.40;99.90
8778;DHT22;4425;50.872;4.712;2024-03-08T11:04:47;9.40;99.90
8778;DHT22;4425;50.872;4.712;2024-03-08T11:07:14;9.60;99.90
8778;DHT22;4425;50.872;4.712;2024-03-08T11:09:47;9.60;99.90
8778;DHT22;4425;50.872;4.712;2024-03-08T11:12:27;9.70;99.90
8778;DHT22;4425;50.872;4.712;2024-03-08T11:14:59;9.80;99.90
8778;DHT22;4425;50.872;4.712;2024-03-08T11:17:48;9.80;99.90
8778;DHT22;4425;50.872;4.712;2024-03-08T11:20:16;9.80;99.90
8778;DHT22;4425;50.872;4.712;2024-03-08T11:22:50;9.90;99.90
8778;DHT22;4425;50.872;4.712;2024-03-08T11:25:35;10.00;99.90
8778;DHT22;4425;50.872;4.712;2024-03-08T11:28:11;10.00;99.90
8778;DHT22;4425;50.872;4.712;2024-03-08T11:30:47;10.10;99.90
8778;DHT22;4425;50.872;4.712;2024-03-08T11:33:35;10.20;99.90
8778;DHT22;4425;50.872;4.712;2024-03-08T11:36:03;10.30;99.90
8778;DHT22;4425;50.872;4.712;2024-03-08T11:38:40;10.30;99.90
8778;DHT22;4425;50.872;4.712;2024-03-08T11:41:07;10.30;99.90
8778;DHT22;4425;50.872;4.712;2024-03-08T11:43:40;10.50;99.90
8778;DHT22;4425;50.872;4.712;2024-03-08T11:46:21;10.50;99.90
8778;DHT22;4425;50.872;4.712;2024-03-08T11:48:49;10.50;99.90
8778;DHT22;4425;50.872;4.712;2024-03-08T11:51:17;10.70;99.90
8778;DHT22;4425;50.872;4.712;2024-03-08T11:53:46;10.70;99.90
8778;DHT22;4425;50.872;4.712;2024-03-08T11:56:14;10.90;99.90
8778;DHT22;4425;50.872;4.712;2024-03-08T11:58:53;11.00;99.90
8778;DHT22;4425;50.872;4.712;2024-03-08T12:01:24;11.00;99.90
8778;DHT22;4425;50.872;4.712;2024-03-08T12:03:53;11.10;99.90
8778;DHT22;4425;50.872;4.712;2024-03-08T12:06:21;11.10;99.90
8778;DHT22;4425;50.872;4.712;2024-03-08T18:26:24;9.80;99.90
8778;DHT22;4425;50.872;4.712;2024-03-08T18:28:51;9.80;99.90
8778;DHT22;4425;50.872;4.712;2024-03-08T18:31:19;9.80;99.90
8778;DHT22;4425;50.872;4.712;2024-03-08T18:33:47;9.70;99.90
8778;DHT22;4425;50.872;4.712;2024-03-08T18:36:15;9.70;99.90
8778;DHT22;4425;50.872;4.712;2024-03-08T18:38:42;9.70;99.90
8778;DHT22;4425;50.872;4.712;2024-03-08T18:41:09;9.70;99.90
8778;DHT22;4425;50.872;4.712;2024-03-08T18:43:40;9.60;99.90
8778;DHT22;4425;50.872;4.712;2024-03-08T18:46:07;9.50;99.90
8778;DHT22;4425;50.872;4.712;2024-03-08T18:48:34;9.50;99.90
8778;DHT22;4425;50.872;4.712;2024-03-08T18:51:02;9.50;99.90
8778;DHT22;4425;50.872;4.712;2024-03-08T18:53:31;9.50;99.90
8778;DHT22;4425;50.872;4.712;2024-03-08T18:55:58;9.40;99.90
8778;DHT22;4425;50.872;4.712;2024-03-08T18:58:27;9.30;99.90
8778;DHT22;4425;50.872;4.712;2024-03-08T19:00:58;9.30;99.90
8778;DHT22;4425;50.872;4.712;2024-03-08T19:03:28;9.30;99.90
8778;DHT22;4425;50.872;4.712;2024-03-08T19:05:57;9.30;99.90
8778;DHT22;4425;50.872;4.712;2024-03-08T19:08:26;9.40;99.90
8778;DHT22;4425;50.872;4.712;2024-03-08T19:10:53;9.40;99.90
8778;DHT22;4425;50.872;4.712;2024-03-08T19:13:23;9.40;99.90
8778;DHT22;4425;50.872;4.712;2024-03-08T19:15:50;9.30;99.90
8778;DHT22;4425;50.872;4.712;2024-03-08T19:18:19;9.30;99.90
8778;DHT22;4425;50.872;4.712;2024-03-08T19:20:46;9.20;99.90
8778;DHT22;4425;50.872;4.712;2024-03-08T19:23:14;9.20;99.90
8778;DHT22;4425;50.872;4.712;2024-03-08T19:25:55;9.10;99.90
8778;DHT22;4425;50.872;4.712;2024-03-08T19:28:24;9.00;99.90
8778;DHT22;4425;50.872;4.712;2024-03-08T19:31:05;8.90;99.90
8778;DHT22;4425;50.872;4.712;2024-03-08T19:33:34;8.90;99.90
8778;DHT22;4425;50.872;4.712;2024-03-08T19:36:02;8.90;99.90
8778;DHT22;4425;50.872;4.712;2024-03-08T19:38:30;8.90;99.90
8778;DHT22;4425;50.872;4.712;2024-03-08T19:40:57;8.80;99.90
8778;DHT22;4425;50.872;4.712;2024-03-08T19:43:26;8.80;99.90
8778;DHT22;4425;50.872;4.712;2024-03-08T19:45:53;8.70;99.90
8778;DHT22;4425;50.872;4.712;2024-03-08T19:48:30;8.70;99.90
8778;DHT22;4425;50.872;4.712;2024-03-08T19:50:58;8.60;99.90
8778;DHT22;4425;50.872;4.712;2024-03-08T19:53:30;8.50;99.90
8778;DHT22;4425;50.872;4.712;2024-03-08T19:55:58;8.50;99.90
8778;DHT22;4425;50.872;4.712;2024-03-08T19:58:29;8.50;99.90
8778;DHT22;4425;50.872;4.712;2024-03-08T20:01:03;8.40;99.90
8778;DHT22;4425;50.872;4.712;2024-03-08T20:03:30;8.30;99.90
8778;DHT22;4425;50.872;4.712;2024-03-08T20:06:03;8.30;99.90
8778;DHT22;4425;50.872;4.712;2024-03-08T20:08:33;8.20;99.90
8778;DHT22;4425;50.872;4.712;2024-03-08T20:11:03;8.20;99.90
8778;DHT22;4425;50.872;4.712;2024-03-08T20:13:35;8.30;99.90
8778;DHT22;4425;50.872;4.712;2024-03-08T20:16:16;8.30;99.90
8778;DHT22;4425;50.872;4.712;2024-03-08T20:18:43;8.30;99.90
8778;DHT22;4425;50.872;4.712;2024-03-08T20:21:22;8.30;99.90
8778;DHT22;4425;50.872;4.712;2024-03-08T20:23:50;8.40;99.90
8778;DHT22;4425;50.872;4.712;2024-03-08T20:26:20;8.40;99.90
8778;DHT22;4425;50.872;4.712;2024-03-08T20:29:06;8.40;99.90
8778;DHT22;4425;50.872;4.712;2024-03-08T20:31:34;8.30;99.90
8778;DHT22;4425;50.872;4.712;2024-03-08T20:34:04;8.40;99.90
8778;DHT22;4425;50.872;4.712;2024-03-08T20:36:47;8.40;99.90
8778;DHT22;4425;50.872;4.712;2024-03-08T20:39:18;8.40;99.90
8778;DHT22;4425;50.872;4.712;2024-03-08T20:41:48;8.40;99.90
8778;DHT22;4425;50.872;4.712;2024-03-08T20:44:26;8.50;99.90
8778;DHT22;4425;50.872;4.712;2024-03-08T20:46:54;8.50;99.90
8778;DHT22;4425;50.872;4.712;2024-03-08T20:49:23;8.50;99.90
8778;DHT22;4425;50.872;4.712;2024-03-08T20:51:51;8.50;99.90
8778;DHT22;4425;50.872;4.712;2024-03-08T20:54:22;8.60;99.90
8778;DHT22;4425;50.872;4.712;2024-03-08T20:56:50;8.60;99.90
8778;DHT22;4425;50.872;4.712;2024-03-08T20:59:18;8.60;99.90
8778;DHT22;4425;50.872;4.712;2024-03-08T21:01:46;8.60;99.90
8778;DHT22;4425;50.872;4.712;2024-03-08T21:04:13;8.60;99.90
8778;DHT22;4425;50.872;4.712;2024-03-08T21:06:43;8.60;99.90
8778;DHT22;4425;50.872;4.712;2024-03-08T21:09:12;8.60;99.90
8778;DHT22;4425;50.872;4.712;2024-03-08T21:11:43;8.60;99.90
8778;DHT22;4425;50.872;4.712;2024-03-08T21:14:10;8.60;99.90
8778;DHT22;4425;50.872;4.712;2024-03-08T21:16:38;8.70;99.90
8778;DHT22;4425;50.872;4.712;2024-03-08T21:19:07;8.60;99.90
8778;DHT22;4425;50.872;4.712;2024-03-08T21:21:34;8.70;99.90
8778;DHT22;4425;50.872;4.712;2024-03-08T21:24:02;8.70;99.90
8778;DHT22;4425;50.872;4.712;2024-03-08T21:26:32;8.70;99.90
8778;DHT22;4425;50.872;4.712;2024-03-08T21:28:59;8.70;99.90
8778;DHT22;4425;50.872;4.712;2024-03-08T21:31:27;8.60;99.90
8778;DHT22;4425;50.872;4.712;2024-03-08T21:33:55;8.60;99.90
8778;DHT22;4425;50.872;4.712;2024-03-08T21:36:22;8.60;99.90
8778;DHT22;4425;50.872;4.712;2024-03-08T21:38:49;8.60;99.90
8778;DHT22;4425;50.872;4.712;2024-03-08T21:41:16;8.70;99.90
8778;DHT22;4425;50.872;4.712;2024-03-08T21:43:45;8.60;99.90
8778;DHT22;4425;50.872;4.712;2024-03-08T21:46:13;8.60;99.90
8778;DHT22;4425;50.872;4.712;2024-03-08T21:48:41;8.60;99.90
8778;DHT22;4425;50.872;4.712;2024-03-08T21:51:08;8.50;99.90
8778;DHT22;4425;50.872;4.712;2024-03-08T21:53:36;8.50;99.90
8778;DHT22;4425;50.872;4.712;2024-03-08T21:56:05;8.50;99.90
8778;DHT22;4425;50.872;4.712;2024-03-08T21:58:35;8.50;99.90
8778;DHT22;4425;50.872;4.712;2024-03-08T22:01:04;8.50;99.90
8778;DHT22;4425;50.872;4.712;2024-03-08T22:03:32;8.50;99.90
8778;DHT22;4425;50.872;4.712;2024-03-08T22:06:00;8.40;99.90
8778;DHT22;4425;50.872;4.712;2024-03-08T22:08:31;8.40;99.90
8778;DHT22;4425;50.872;4.712;2024-03-08T22:10:59;8.40;99.90
8778;DHT22;4425;50.872;4.712;2024-03-08T22:13:26;8.30;99.90
8778;DHT22;4425;50.872;4.712;2024-03-08T22:15:54;8.40;99.90
8778;DHT22;4425;50.872;4.712;2024-03-08T22:18:23;8.30;99.90
8778;DHT22;4425;50.872;4.712;2024-03-08T22:20:50;8.30;99.90
8778;DHT22;4425;50.872;4.712;2024-03-08T22:23:17;8.20;99.90
8778;DHT22;4425;50.872;4.712;2024-03-08T22:25:49;8.20;99.90
8778;DHT22;4425;50.872;4.712;2024-03-08T22:28:17;8.20;99.90
8778;DHT22;4425;50.872;4.712;2024-03-08T22:30:51;8.10;99.90
8778;DHT22;4425;50.872;4.712;2024-03-08T22:33:19;8.00;99.90
8778;DHT22;4425;50.872;4.712;2024-03-08T22:35:51;8.00;99.90
8778;DHT22;4425;50.872;4.712;2024-03-08T22:38:19;8.00;99.90
8778;DHT22;4425;50.872;4.712;2024-03-08T22:40:47;8.00;99.90
8778;DHT22;4425;50.872;4.712;2024-03-08T22:43:14;7.90;99.90
8778;DHT22;4425;50.872;4.712;2024-03-08T22:45:42;7.90;99.90
8778;DHT22;4425;50.872;4.712;2024-03-08T22:48:12;7.90;99.90